sensor_id;sensor_type;location;lat;lon;timestamp;P1;durP1;ratioP1;P2;durP2;ratioP2
33993;SDS011;20673;48.980;8.138;2022-09-28T00:01:13;3.87;;;1.90;;
33993;SDS011;20673;48.980;8.138;2022-09-28T00:03:43;5.42;;;2.27;;
33993;SDS011;20673;48.980;8.138;2022-09-28T00:06:12;2.40;;;1.92;;
33993;SDS011;20673;48.980;8.138;2022-09-28T00:08:40;3.50;;;1.82;;
33993;SDS011;20673;48.980;8.138;2022-09-28T00:11:07;6.37;;;2.08;;
33993;SDS011;20673;48.980;8.138;2022-09-28T00:13:38;6.33;;;1.92;;
33993;SDS011;20673;48.980;8.138;2022-09-28T00:16:07;4.37;;;1.40;;
33993;SDS011;20673;48.980;8.138;2022-09-28T00:18:38;4.35;;;1.80;;
33993;SDS011;20673;48.980;8.138;2022-09-28T00:23:39;4.55;;;1.75;;
33993;SDS011;20673;48.980;8.138;2022-09-28T00:26:28;6.12;;;1.75;;
33993;SDS011;20673;48.980;8.138;2022-09-28T00:28:59;5.22;;;2.10;;
33993;SDS011;20673;48.980;8.138;2022-09-28T00:31:27;3.37;;;2.10;;
33993;SDS011;20673;48.980;8.138;2022-09-28T00:33:57;7.33;;;1.87;;
33993;SDS011;20673;48.980;8.138;2022-09-28T00:36:25;4.90;;;1.72;;
33993;SDS011;20673;48.980;8.138;2022-09-28T00:38:54;7.40;;;1.98;;
33993;SDS011;20673;48.980;8.138;2022-09-28T00:41:22;1.62;;;1.17;;
33993;SDS011;20673;48.980;8.138;2022-09-28T00:43:53;5.37;;;1.30;;
33993;SDS011;20673;48.980;8.138;2022-09-28T00:46:43;3.83;;;1.10;;
33993;SDS011;20673;48.980;8.138;2022-09-28T00:49:10;2.58;;;0.80;;
33993;SDS011;20673;48.980;8.138;2022-09-28T00:51:42;2.65;;;0.93;;
33993;SDS011;20673;48.980;8.138;2022-09-28T00:54:11;5.40;;;1.30;;
33993;SDS011;20673;48.980;8.138;2022-09-28T00:56:41;4.08;;;1.65;;
33993;SDS011;20673;48.980;8.138;2022-09-28T00:59:11;6.42;;;1.80;;
33993;SDS011;20673;48.980;8.138;2022-09-28T01:01:39;4.60;;;1.57;;
33993;SDS011;20673;48.980;8.138;2022-09-28T01:04:05;3.37;;;1.60;;
33993;SDS011;20673;48.980;8.138;2022-09-28T01:06:33;5.67;;;1.95;;
33993;SDS011;20673;48.980;8.138;2022-09-28T01:09:03;2.27;;;1.55;;
33993;SDS011;20673;48.980;8.138;2022-09-28T01:11:34;3.37;;;2.10;;
33993;SDS011;20673;48.980;8.138;2022-09-28T01:14:04;3.52;;;1.75;;
33993;SDS011;20673;48.980;8.138;2022-09-28T01:19:53;4.58;;;2.02;;
33993;SDS011;20673;48.980;8.138;2022-09-28T01:25:24;6.58;;;2.75;;
33993;SDS011;20673;48.980;8.138;2022-09-28T01:28:25;7.97;;;3.00;;
33993;SDS011;20673;48.980;8.138;2022-09-28T01:33:43;10.28;;;2.80;;
33993;SDS011;20673;48.980;8.138;2022-09-28T01:36:35;7.20;;;2.17;;
33993;SDS011;20673;48.980;8.138;2022-09-28T01:39:08;6.25;;;2.40;;
33993;SDS011;20673;48.980;8.138;2022-09-28T01:41:39;8.83;;;3.17;;
33993;SDS011;20673;48.980;8.138;2022-09-28T01:44:09;5.08;;;2.60;;
33993;SDS011;20673;48.980;8.138;2022-09-28T01:46:41;10.60;;;3.15;;
33993;SDS011;20673;48.980;8.138;2022-09-28T01:51:54;9.55;;;2.58;;
33993;SDS011;20673;48.980;8.138;2022-09-28T02:03:04;6.42;;;1.42;;
33993;SDS011;20673;48.980;8.138;2022-09-28T02:05:38;3.25;;;1.35;;
33993;SDS011;20673;48.980;8.138;2022-09-28T02:08:20;2.10;;;1.00;;
33993;SDS011;20673;48.980;8.138;2022-09-28T02:11:13;2.83;;;1.22;;
33993;SDS011;20673;48.980;8.138;2022-09-28T02:13:43;4.83;;;1.45;;
33993;SDS011;20673;48.980;8.138;2022-09-28T02:16:31;3.27;;;1.07;;
33993;SDS011;20673;48.980;8.138;2022-09-28T02:19:14;1.45;;;0.68;;
33993;SDS011;20673;48.980;8.138;2022-09-28T02:21:42;3.40;;;0.80;;
33993;SDS011;20673;48.980;8.138;2022-09-28T02:24:16;2.90;;;0.50;;
33993;SDS011;20673;48.980;8.138;2022-09-28T02:27:11;2.90;;;0.50;;
33993;SDS011;20673;48.980;8.138;2022-09-28T02:29:43;3.27;;;0.45;;
33993;SDS011;20673;48.980;8.138;2022-09-28T02:32:09;2.02;;;0.65;;
33993;SDS011;20673;48.980;8.138;2022-09-28T02:34:36;4.65;;;0.60;;
33993;SDS011;20673;48.980;8.138;2022-09-28T02:37:02;2.12;;;0.72;;
33993;SDS011;20673;48.980;8.138;2022-09-28T02:39:28;3.57;;;0.77;;
33993;SDS011;20673;48.980;8.138;2022-09-28T02:44:55;2.75;;;0.65;;
33993;SDS011;20673;48.980;8.138;2022-09-28T02:56:21;0.65;;;0.55;;
33993;SDS011;20673;48.980;8.138;2022-09-28T03:04:57;1.98;;;0.60;;
33993;SDS011;20673;48.980;8.138;2022-09-28T03:07:51;2.33;;;0.70;;
33993;SDS011;20673;48.980;8.138;2022-09-28T03:10:42;1.90;;;0.50;;
33993;SDS011;20673;48.980;8.138;2022-09-28T03:13:12;2.98;;;0.88;;
33993;SDS011;20673;48.980;8.138;2022-09-28T03:15:41;2.47;;;0.70;;
33993;SDS011;20673;48.980;8.138;2022-09-28T03:18:09;3.15;;;0.72;;
33993;SDS011;20673;48.980;8.138;2022-09-28T03:20:35;2.80;;;0.82;;
33993;SDS011;20673;48.980;8.138;2022-09-28T03:23:01;3.50;;;0.98;;
33993;SDS011;20673;48.980;8.138;2022-09-28T03:25:28;2.57;;;1.10;;
33993;SDS011;20673;48.980;8.138;2022-09-28T03:27:55;2.37;;;0.80;;
33993;SDS011;20673;48.980;8.138;2022-09-28T03:30:21;1.47;;;0.70;;
33993;SDS011;20673;48.980;8.138;2022-09-28T03:32:55;1.80;;;0.78;;
33993;SDS011;20673;48.980;8.138;2022-09-28T03:35:24;2.60;;;0.78;;
33993;SDS011;20673;48.980;8.138;2022-09-28T03:37:54;3.33;;;1.00;;
33993;SDS011;20673;48.980;8.138;2022-09-28T03:40:21;2.58;;;1.12;;
33993;SDS011;20673;48.980;8.138;2022-09-28T03:42:47;3.98;;;1.05;;
33993;SDS011;20673;48.980;8.138;2022-09-28T03:45:13;4.60;;;0.85;;
33993;SDS011;20673;48.980;8.138;2022-09-28T03:47:43;2.47;;;0.65;;
33993;SDS011;20673;48.980;8.138;2022-09-28T03:50:13;5.92;;;0.90;;
33993;SDS011;20673;48.980;8.138;2022-09-28T03:52:40;3.42;;;1.22;;
33993;SDS011;20673;48.980;8.138;2022-09-28T03:55:06;2.58;;;0.80;;
33993;SDS011;20673;48.980;8.138;2022-09-28T03:57:34;3.45;;;0.60;;
33993;SDS011;20673;48.980;8.138;2022-09-28T04:00:00;2.47;;;1.10;;
33993;SDS011;20673;48.980;8.138;2022-09-28T04:02:28;4.60;;;1.07;;
33993;SDS011;20673;48.980;8.138;2022-09-28T04:04:54;4.57;;;1.13;;
33993;SDS011;20673;48.980;8.138;2022-09-28T04:07:21;4.22;;;1.20;;
33993;SDS011;20673;48.980;8.138;2022-09-28T04:09:47;4.10;;;1.12;;
33993;SDS011;20673;48.980;8.138;2022-09-28T04:12:14;3.37;;;1.32;;
33993;SDS011;20673;48.980;8.138;2022-09-28T04:14:40;3.47;;;1.40;;
33993;SDS011;20673;48.980;8.138;2022-09-28T04:17:06;5.37;;;1.12;;
33993;SDS011;20673;48.980;8.138;2022-09-28T04:19:32;2.98;;;1.07;;
33993;SDS011;20673;48.980;8.138;2022-09-28T04:21:59;4.90;;;1.07;;
33993;SDS011;20673;48.980;8.138;2022-09-28T04:24:26;4.70;;;1.20;;
33993;SDS011;20673;48.980;8.138;2022-09-28T04:26:52;5.60;;;1.20;;
33993;SDS011;20673;48.980;8.138;2022-09-28T04:29:24;2.52;;;1.07;;
33993;SDS011;20673;48.980;8.138;2022-09-28T04:31:52;4.12;;;1.10;;
33993;SDS011;20673;48.980;8.138;2022-09-28T04:34:21;4.35;;;1.25;;
33993;SDS011;20673;48.980;8.138;2022-09-28T04:36:55;4.35;;;1.30;;
33993;SDS011;20673;48.980;8.138;2022-09-28T04:39:24;4.72;;;1.15;;
33993;SDS011;20673;48.980;8.138;2022-09-28T04:41:54;3.00;;;1.10;;
33993;SDS011;20673;48.980;8.138;2022-09-28T04:44:23;3.67;;;1.00;;
33993;SDS011;20673;48.980;8.138;2022-09-28T04:46:54;4.60;;;1.10;;
33993;SDS011;20673;48.980;8.138;2022-09-28T04:49:26;3.08;;;0.98;;
33993;SDS011;20673;48.980;8.138;2022-09-28T04:51:53;2.87;;;1.00;;
33993;SDS011;20673;48.980;8.138;2022-09-28T04:54:20;3.65;;;0.80;;
33993;SDS011;20673;48.980;8.138;2022-09-28T04:56:48;2.83;;;1.27;;
33993;SDS011;20673;48.980;8.138;2022-09-28T04:59:17;3.23;;;1.30;;
33993;SDS011;20673;48.980;8.138;2022-09-28T05:01:44;5.67;;;1.20;;
33993;SDS011;20673;48.980;8.138;2022-09-28T05:04:12;4.13;;;1.50;;
33993;SDS011;20673;48.980;8.138;2022-09-28T05:06:39;4.47;;;1.75;;
33993;SDS011;20673;48.980;8.138;2022-09-28T05:09:06;5.65;;;2.22;;
33993;SDS011;20673;48.980;8.138;2022-09-28T05:11:35;5.72;;;2.25;;
33993;SDS011;20673;48.980;8.138;2022-09-28T05:14:04;3.85;;;1.57;;
33993;SDS011;20673;48.980;8.138;2022-09-28T05:16:31;2.35;;;1.80;;
33993;SDS011;20673;48.980;8.138;2022-09-28T05:19:00;6.60;;;2.30;;
33993;SDS011;20673;48.980;8.138;2022-09-28T05:21:30;5.17;;;2.52;;
33993;SDS011;20673;48.980;8.138;2022-09-28T05:23:58;7.77;;;2.73;;
33993;SDS011;20673;48.980;8.138;2022-09-28T05:26:29;6.50;;;2.58;;
33993;SDS011;20673;48.980;8.138;2022-09-28T05:28:58;4.17;;;2.60;;
33993;SDS011;20673;48.980;8.138;2022-09-28T05:31:25;7.30;;;2.50;;
33993;SDS011;20673;48.980;8.138;2022-09-28T05:33:54;8.15;;;2.58;;
33993;SDS011;20673;48.980;8.138;2022-09-28T05:36:20;6.87;;;3.33;;
33993;SDS011;20673;48.980;8.138;2022-09-28T05:38:46;5.87;;;2.65;;
33993;SDS011;20673;48.980;8.138;2022-09-28T05:41:12;8.05;;;2.90;;
33993;SDS011;20673;48.980;8.138;2022-09-28T05:43:38;7.40;;;2.98;;
33993;SDS011;20673;48.980;8.138;2022-09-28T05:46:05;7.33;;;2.90;;
33993;SDS011;20673;48.980;8.138;2022-09-28T05:48:31;6.70;;;2.60;;
33993;SDS011;20673;48.980;8.138;2022-09-28T05:50:57;7.07;;;3.07;;
33993;SDS011;20673;48.980;8.138;2022-09-28T05:53:24;4.78;;;2.65;;
33993;SDS011;20673;48.980;8.138;2022-09-28T05:55:50;5.58;;;1.87;;
33993;SDS011;20673;48.980;8.138;2022-09-28T05:58:17;6.20;;;2.60;;
33993;SDS011;20673;48.980;8.138;2022-09-28T06:00:43;10.85;;;3.30;;
33993;SDS011;20673;48.980;8.138;2022-09-28T06:03:10;6.00;;;2.50;;
33993;SDS011;20673;48.980;8.138;2022-09-28T06:05:39;8.63;;;2.90;;
33993;SDS011;20673;48.980;8.138;2022-09-28T06:08:06;6.30;;;2.73;;
33993;SDS011;20673;48.980;8.138;2022-09-28T06:10:35;5.05;;;2.72;;
33993;SDS011;20673;48.980;8.138;2022-09-28T06:13:01;5.80;;;2.62;;
33993;SDS011;20673;48.980;8.138;2022-09-28T06:15:28;7.58;;;2.67;;
33993;SDS011;20673;48.980;8.138;2022-09-28T06:20:35;5.97;;;2.90;;
33993;SDS011;20673;48.980;8.138;2022-09-28T06:23:05;5.40;;;2.95;;
33993;SDS011;20673;48.980;8.138;2022-09-28T06:25:35;5.47;;;2.33;;
33993;SDS011;20673;48.980;8.138;2022-09-28T06:28:12;5.92;;;2.40;;
33993;SDS011;20673;48.980;8.138;2022-09-28T06:30:38;4.62;;;2.10;;
33993;SDS011;20673;48.980;8.138;2022-09-28T06:33:07;4.95;;;2.00;;
33993;SDS011;20673;48.980;8.138;2022-09-28T06:35:36;6.80;;;2.47;;
33993;SDS011;20673;48.980;8.138;2022-09-28T06:38:03;8.65;;;2.47;;
33993;SDS011;20673;48.980;8.138;2022-09-28T06:40:29;5.70;;;2.60;;
33993;SDS011;20673;48.980;8.138;2022-09-28T06:43:00;4.70;;;2.40;;
33993;SDS011;20673;48.980;8.138;2022-09-28T06:45:30;8.20;;;2.67;;
33993;SDS011;20673;48.980;8.138;2022-09-28T06:47:57;5.45;;;2.42;;
33993;SDS011;20673;48.980;8.138;2022-09-28T06:50:30;9.93;;;2.90;;
33993;SDS011;20673;48.980;8.138;2022-09-28T06:52:56;10.55;;;3.12;;
33993;SDS011;20673;48.980;8.138;2022-09-28T06:55:24;5.37;;;2.35;;
33993;SDS011;20673;48.980;8.138;2022-09-28T06:57:58;5.22;;;2.75;;
33993;SDS011;20673;48.980;8.138;2022-09-28T07:00:33;5.80;;;3.50;;
33993;SDS011;20673;48.980;8.138;2022-09-28T07:03:01;6.37;;;3.20;;
33993;SDS011;20673;48.980;8.138;2022-09-28T07:05:31;5.37;;;3.10;;
33993;SDS011;20673;48.980;8.138;2022-09-28T07:08:01;5.85;;;2.83;;
33993;SDS011;20673;48.980;8.138;2022-09-28T07:10:30;13.13;;;4.30;;
33993;SDS011;20673;48.980;8.138;2022-09-28T07:12:58;6.62;;;3.58;;
33993;SDS011;20673;48.980;8.138;2022-09-28T07:15:27;7.33;;;3.35;;
33993;SDS011;20673;48.980;8.138;2022-09-28T07:17:55;8.13;;;3.30;;
33993;SDS011;20673;48.980;8.138;2022-09-28T07:20:23;6.90;;;3.05;;
33993;SDS011;20673;48.980;8.138;2022-09-28T07:22:58;9.73;;;3.65;;
33993;SDS011;20673;48.980;8.138;2022-09-28T07:25:26;5.08;;;3.05;;
33993;SDS011;20673;48.980;8.138;2022-09-28T07:27:57;7.42;;;3.12;;
33993;SDS011;20673;48.980;8.138;2022-09-28T07:30:25;6.47;;;3.10;;
33993;SDS011;20673;48.980;8.138;2022-09-28T07:32:56;9.43;;;4.12;;
33993;SDS011;20673;48.980;8.138;2022-09-28T07:35:24;7.33;;;3.50;;
33993;SDS011;20673;48.980;8.138;2022-09-28T07:37:57;4.65;;;3.00;;
33993;SDS011;20673;48.980;8.138;2022-09-28T07:40:29;7.58;;;3.30;;
33993;SDS011;20673;48.980;8.138;2022-09-28T07:43:15;6.10;;;3.05;;
33993;SDS011;20673;48.980;8.138;2022-09-28T07:45:44;5.22;;;2.70;;
33993;SDS011;20673;48.980;8.138;2022-09-28T07:48:12;6.03;;;3.02;;
33993;SDS011;20673;48.980;8.138;2022-09-28T07:50:52;9.50;;;3.20;;
33993;SDS011;20673;48.980;8.138;2022-09-28T07:53:22;8.13;;;3.30;;
33993;SDS011;20673;48.980;8.138;2022-09-28T07:55:55;10.28;;;3.45;;
33993;SDS011;20673;48.980;8.138;2022-09-28T07:58:20;7.58;;;2.92;;
33993;SDS011;20673;48.980;8.138;2022-09-28T08:00:47;5.22;;;2.55;;
33993;SDS011;20673;48.980;8.138;2022-09-28T08:03:15;10.50;;;3.33;;
33993;SDS011;20673;48.980;8.138;2022-09-28T08:05:43;7.90;;;2.98;;
33993;SDS011;20673;48.980;8.138;2022-09-28T08:08:11;9.40;;;3.70;;
33993;SDS011;20673;48.980;8.138;2022-09-28T08:10:42;8.38;;;2.98;;
33993;SDS011;20673;48.980;8.138;2022-09-28T08:13:09;8.13;;;2.80;;
33993;SDS011;20673;48.980;8.138;2022-09-28T08:15:35;7.17;;;2.67;;
33993;SDS011;20673;48.980;8.138;2022-09-28T08:18:03;6.10;;;2.70;;
33993;SDS011;20673;48.980;8.138;2022-09-28T08:20:30;7.05;;;2.70;;
33993;SDS011;20673;48.980;8.138;2022-09-28T08:23:16;6.35;;;2.60;;
33993;SDS011;20673;48.980;8.138;2022-09-28T08:25:50;6.95;;;3.02;;
33993;SDS011;20673;48.980;8.138;2022-09-28T08:28:16;10.53;;;3.27;;
33993;SDS011;20673;48.980;8.138;2022-09-28T08:30:43;6.85;;;2.08;;
33993;SDS011;20673;48.980;8.138;2022-09-28T08:33:10;8.67;;;2.77;;
33993;SDS011;20673;48.980;8.138;2022-09-28T08:35:37;8.53;;;3.00;;
33993;SDS011;20673;48.980;8.138;2022-09-28T08:38:05;5.10;;;2.30;;
33993;SDS011;20673;48.980;8.138;2022-09-28T08:46:34;5.50;;;2.37;;
33993;SDS011;20673;48.980;8.138;2022-09-28T08:49:08;7.40;;;2.42;;
33993;SDS011;20673;48.980;8.138;2022-09-28T08:52:03;10.28;;;2.33;;
33993;SDS011;20673;48.980;8.138;2022-09-28T08:54:48;5.92;;;2.42;;
33993;SDS011;20673;48.980;8.138;2022-09-28T09:00:03;6.60;;;2.25;;
33993;SDS011;20673;48.980;8.138;2022-09-28T09:02:31;7.20;;;2.58;;
33993;SDS011;20673;48.980;8.138;2022-09-28T09:05:09;7.72;;;2.83;;
33993;SDS011;20673;48.980;8.138;2022-09-28T09:19:29;7.47;;;2.40;;
33993;SDS011;20673;48.980;8.138;2022-09-28T09:30:42;6.33;;;1.90;;
33993;SDS011;20673;48.980;8.138;2022-09-28T09:33:43;10.28;;;2.85;;
33993;SDS011;20673;48.980;8.138;2022-09-28T09:36:36;6.17;;;1.70;;
33993;SDS011;20673;48.980;8.138;2022-09-28T09:42:53;7.87;;;2.30;;
33993;SDS011;20673;48.980;8.138;2022-09-28T09:51:05;5.37;;;2.10;;
33993;SDS011;20673;48.980;8.138;2022-09-28T09:53:57;5.72;;;1.75;;
33993;SDS011;20673;48.980;8.138;2022-09-28T09:56:46;7.40;;;2.00;;
33993;SDS011;20673;48.980;8.138;2022-09-28T09:59:04;6.73;;;2.17;;
33993;SDS011;20673;48.980;8.138;2022-09-28T10:01:37;7.83;;;2.63;;
33993;SDS011;20673;48.980;8.138;2022-09-28T10:04:05;6.70;;;2.87;;
33993;SDS011;20673;48.980;8.138;2022-09-28T10:06:52;4.50;;;2.43;;
33993;SDS011;20673;48.980;8.138;2022-09-28T10:09:27;5.97;;;2.17;;
33993;SDS011;20673;48.980;8.138;2022-09-28T10:12:09;8.28;;;2.50;;
33993;SDS011;20673;48.980;8.138;2022-09-28T10:14:40;5.45;;;2.30;;
33993;SDS011;20673;48.980;8.138;2022-09-28T10:17:08;5.17;;;2.00;;
33993;SDS011;20673;48.980;8.138;2022-09-28T10:19:38;6.28;;;2.10;;
33993;SDS011;20673;48.980;8.138;2022-09-28T10:22:04;4.90;;;1.92;;
33993;SDS011;20673;48.980;8.138;2022-09-28T10:24:33;8.93;;;2.40;;
33993;SDS011;20673;48.980;8.138;2022-09-28T10:27:12;5.62;;;2.22;;
33993;SDS011;20673;48.980;8.138;2022-09-28T10:29:50;6.73;;;2.20;;
33993;SDS011;20673;48.980;8.138;2022-09-28T10:32:36;9.70;;;2.65;;
33993;SDS011;20673;48.980;8.138;2022-09-28T10:40:39;6.97;;;2.37;;
33993;SDS011;20673;48.980;8.138;2022-09-28T10:43:23;5.28;;;1.95;;
33993;SDS011;20673;48.980;8.138;2022-09-28T10:46:06;5.28;;;1.80;;
33993;SDS011;20673;48.980;8.138;2022-09-28T10:51:45;5.00;;;1.82;;
33993;SDS011;20673;48.980;8.138;2022-09-28T10:54:20;8.00;;;2.30;;
33993;SDS011;20673;48.980;8.138;2022-09-28T10:56:56;8.07;;;2.53;;
33993;SDS011;20673;48.980;8.138;2022-09-28T11:02:05;3.87;;;1.63;;
33993;SDS011;20673;48.980;8.138;2022-09-28T11:04:53;6.60;;;1.90;;
33993;SDS011;20673;48.980;8.138;2022-09-28T11:07:24;7.65;;;2.00;;
33993;SDS011;20673;48.980;8.138;2022-09-28T11:12:23;6.42;;;1.92;;
33993;SDS011;20673;48.980;8.138;2022-09-28T11:14:55;7.28;;;2.17;;
33993;SDS011;20673;48.980;8.138;2022-09-28T11:17:26;5.15;;;2.00;;
33993;SDS011;20673;48.980;8.138;2022-09-28T11:19:57;5.80;;;2.12;;
33993;SDS011;20673;48.980;8.138;2022-09-28T11:30:27;5.53;;;2.05;;
33993;SDS011;20673;48.980;8.138;2022-09-28T11:33:02;6.53;;;1.87;;
33993;SDS011;20673;48.980;8.138;2022-09-28T11:35:48;5.33;;;1.32;;
33993;SDS011;20673;48.980;8.138;2022-09-28T11:38:53;4.45;;;1.85;;
33993;SDS011;20673;48.980;8.138;2022-09-28T11:41:32;3.30;;;1.62;;
33993;SDS011;20673;48.980;8.138;2022-09-28T11:44:18;3.12;;;1.60;;
33993;SDS011;20673;48.980;8.138;2022-09-28T11:57:59;5.60;;;1.65;;
33993;SDS011;20673;48.980;8.138;2022-09-28T12:00:58;6.28;;;1.72;;
33993;SDS011;20673;48.980;8.138;2022-09-28T12:03:40;4.00;;;1.10;;
33993;SDS011;20673;48.980;8.138;2022-09-28T12:06:13;2.57;;;1.00;;
33993;SDS011;20673;48.980;8.138;2022-09-28T12:08:45;4.30;;;1.80;;
33993;SDS011;20673;48.980;8.138;2022-09-28T12:11:20;5.83;;;1.30;;
33993;SDS011;20673;48.980;8.138;2022-09-28T12:13:54;3.92;;;1.20;;
33993;SDS011;20673;48.980;8.138;2022-09-28T12:19:04;2.95;;;1.05;;
33993;SDS011;20673;48.980;8.138;2022-09-28T12:21:46;5.40;;;1.22;;
33993;SDS011;20673;48.980;8.138;2022-09-28T12:24:29;3.33;;;1.25;;
33993;SDS011;20673;48.980;8.138;2022-09-28T12:29:56;1.90;;;0.90;;
33993;SDS011;20673;48.980;8.138;2022-09-28T12:32:40;6.45;;;1.25;;
33993;SDS011;20673;48.980;8.138;2022-09-28T12:36:00;3.60;;;1.00;;
33993;SDS011;20673;48.980;8.138;2022-09-28T12:44:33;5.40;;;1.00;;
33993;SDS011;20673;48.980;8.138;2022-09-28T12:55:52;3.45;;;1.00;;
33993;SDS011;20673;48.980;8.138;2022-09-28T13:04:43;1.27;;;0.60;;
33993;SDS011;20673;48.980;8.138;2022-09-28T13:10:40;2.60;;;0.65;;
33993;SDS011;20673;48.980;8.138;2022-09-28T13:21:56;3.47;;;0.90;;
33993;SDS011;20673;48.980;8.138;2022-09-28T13:24:27;3.42;;;1.07;;
33993;SDS011;20673;48.980;8.138;2022-09-28T13:27:08;2.90;;;1.15;;
33993;SDS011;20673;48.980;8.138;2022-09-28T13:29:40;4.80;;;0.68;;
33993;SDS011;20673;48.980;8.138;2022-09-28T13:32:08;2.20;;;0.80;;
33993;SDS011;20673;48.980;8.138;2022-09-28T13:34:39;1.50;;;0.70;;
33993;SDS011;20673;48.980;8.138;2022-09-28T13:39:47;5.08;;;1.10;;
33993;SDS011;20673;48.980;8.138;2022-09-28T13:51:08;3.83;;;1.10;;
33993;SDS011;20673;48.980;8.138;2022-09-28T13:54:04;3.50;;;1.10;;
33993;SDS011;20673;48.980;8.138;2022-09-28T13:56:52;2.07;;;0.80;;
33993;SDS011;20673;48.980;8.138;2022-09-28T14:00:13;3.20;;;0.70;;
33993;SDS011;20673;48.980;8.138;2022-09-28T14:02:52;3.37;;;1.12;;
33993;SDS011;20673;48.980;8.138;2022-09-28T14:08:33;2.33;;;0.68;;
33993;SDS011;20673;48.980;8.138;2022-09-28T14:14:04;2.00;;;0.60;;
33993;SDS011;20673;48.980;8.138;2022-09-28T14:16:41;2.27;;;0.90;;
33993;SDS011;20673;48.980;8.138;2022-09-28T14:19:21;1.83;;;0.83;;
33993;SDS011;20673;48.980;8.138;2022-09-28T14:36:02;3.67;;;1.10;;
33993;SDS011;20673;48.980;8.138;2022-09-28T14:38:43;3.37;;;1.10;;
33993;SDS011;20673;48.980;8.138;2022-09-28T14:41:31;1.53;;;0.80;;
33993;SDS011;20673;48.980;8.138;2022-09-28T14:46:39;2.07;;;0.60;;
33993;SDS011;20673;48.980;8.138;2022-09-28T14:54:40;5.03;;;0.90;;
33993;SDS011;20673;48.980;8.138;2022-09-28T14:57:14;1.87;;;0.67;;
33993;SDS011;20673;48.980;8.138;2022-09-28T14:59:50;2.27;;;0.83;;
33993;SDS011;20673;48.980;8.138;2022-09-28T15:02:18;1.97;;;0.90;;
33993;SDS011;20673;48.980;8.138;2022-09-28T15:05:12;1.80;;;0.70;;
33993;SDS011;20673;48.980;8.138;2022-09-28T15:07:51;3.37;;;1.12;;
33993;SDS011;20673;48.980;8.138;2022-09-28T15:10:23;3.57;;;1.00;;
33993;SDS011;20673;48.980;8.138;2022-09-28T15:12:59;5.43;;;1.10;;
33993;SDS011;20673;48.980;8.138;2022-09-28T15:15:33;2.73;;;1.17;;
33993;SDS011;20673;48.980;8.138;2022-09-28T15:21:12;4.13;;;1.23;;
33993;SDS011;20673;48.980;8.138;2022-09-28T15:23:38;3.20;;;1.00;;
33993;SDS011;20673;48.980;8.138;2022-09-28T15:26:21;3.47;;;1.23;;
33993;SDS011;20673;48.980;8.138;2022-09-28T15:28:56;3.43;;;1.03;;
33993;SDS011;20673;48.980;8.138;2022-09-28T15:31:24;4.40;;;1.70;;
33993;SDS011;20673;48.980;8.138;2022-09-28T15:33:54;1.98;;;1.37;;
33993;SDS011;20673;48.980;8.138;2022-09-28T15:36:43;2.90;;;1.10;;
33993;SDS011;20673;48.980;8.138;2022-09-28T15:39:17;3.17;;;1.50;;
33993;SDS011;20673;48.980;8.138;2022-09-28T15:41:52;5.53;;;1.80;;
33993;SDS011;20673;48.980;8.138;2022-09-28T15:47:08;3.17;;;1.50;;
33993;SDS011;20673;48.980;8.138;2022-09-28T15:49:57;3.30;;;1.93;;
33993;SDS011;20673;48.980;8.138;2022-09-28T15:52:43;3.23;;;1.57;;
33993;SDS011;20673;48.980;8.138;2022-09-28T16:00:45;3.55;;;1.20;;
33993;SDS011;20673;48.980;8.138;2022-09-28T16:11:16;5.37;;;1.50;;
33993;SDS011;20673;48.980;8.138;2022-09-28T16:13:56;2.95;;;2.22;;
33993;SDS011;20673;48.980;8.138;2022-09-28T16:16:48;4.53;;;1.90;;
33993;SDS011;20673;48.980;8.138;2022-09-28T16:19:20;6.15;;;1.20;;
33993;SDS011;20673;48.980;8.138;2022-09-28T16:21:57;2.58;;;1.05;;
33993;SDS011;20673;48.980;8.138;2022-09-28T16:24:32;4.45;;;1.40;;
33993;SDS011;20673;48.980;8.138;2022-09-28T16:27:03;0.98;;;0.72;;
33993;SDS011;20673;48.980;8.138;2022-09-28T16:29:36;2.67;;;1.00;;
33993;SDS011;20673;48.980;8.138;2022-09-28T16:35:13;7.90;;;2.37;;
33993;SDS011;20673;48.980;8.138;2022-09-28T16:37:43;3.72;;;2.00;;
33993;SDS011;20673;48.980;8.138;2022-09-28T16:40:12;6.50;;;3.58;;
33993;SDS011;20673;48.980;8.138;2022-09-28T16:42:39;8.10;;;3.47;;
33993;SDS011;20673;48.980;8.138;2022-09-28T16:45:08;7.05;;;4.17;;
33993;SDS011;20673;48.980;8.138;2022-09-28T16:47:45;7.78;;;3.98;;
33993;SDS011;20673;48.980;8.138;2022-09-28T16:50:14;6.97;;;4.37;;
33993;SDS011;20673;48.980;8.138;2022-09-28T16:52:41;5.90;;;4.17;;
33993;SDS011;20673;48.980;8.138;2022-09-28T16:55:26;5.78;;;3.85;;
33993;SDS011;20673;48.980;8.138;2022-09-28T16:57:52;4.62;;;3.50;;
33993;SDS011;20673;48.980;8.138;2022-09-28T17:00:20;12.43;;;5.35;;
33993;SDS011;20673;48.980;8.138;2022-09-28T17:02:49;6.33;;;4.20;;
33993;SDS011;20673;48.980;8.138;2022-09-28T17:05:16;7.45;;;3.87;;
33993;SDS011;20673;48.980;8.138;2022-09-28T17:07:46;6.37;;;3.45;;
33993;SDS011;20673;48.980;8.138;2022-09-28T17:10:16;4.58;;;3.58;;
33993;SDS011;20673;48.980;8.138;2022-09-28T17:13:02;9.25;;;4.17;;
33993;SDS011;20673;48.980;8.138;2022-09-28T17:15:28;8.90;;;3.98;;
33993;SDS011;20673;48.980;8.138;2022-09-28T17:17:54;5.78;;;3.58;;
33993;SDS011;20673;48.980;8.138;2022-09-28T17:20:21;7.90;;;4.53;;
33993;SDS011;20673;48.980;8.138;2022-09-28T17:22:52;8.75;;;4.85;;
33993;SDS011;20673;48.980;8.138;2022-09-28T17:25:22;9.60;;;5.17;;
33993;SDS011;20673;48.980;8.138;2022-09-28T17:27:50;10.88;;;5.87;;
33993;SDS011;20673;48.980;8.138;2022-09-28T17:30:21;12.68;;;7.22;;
33993;SDS011;20673;48.980;8.138;2022-09-28T17:32:47;10.20;;;5.62;;
33993;SDS011;20673;48.980;8.138;2022-09-28T17:35:15;9.43;;;4.95;;
33993;SDS011;20673;48.980;8.138;2022-09-28T17:37:43;6.85;;;4.33;;
33993;SDS011;20673;48.980;8.138;2022-09-28T17:40:20;8.48;;;5.20;;
33993;SDS011;20673;48.980;8.138;2022-09-28T17:42:50;9.65;;;5.53;;
33993;SDS011;20673;48.980;8.138;2022-09-28T17:45:18;11.63;;;6.40;;
33993;SDS011;20673;48.980;8.138;2022-09-28T17:47:44;9.85;;;6.92;;
33993;SDS011;20673;48.980;8.138;2022-09-28T17:52:52;12.90;;;9.17;;
33993;SDS011;20673;48.980;8.138;2022-09-28T17:55:19;13.45;;;8.90;;
33993;SDS011;20673;48.980;8.138;2022-09-28T17:57:53;16.20;;;8.95;;
33993;SDS011;20673;48.980;8.138;2022-09-28T18:00:20;11.70;;;7.22;;
33993;SDS011;20673;48.980;8.138;2022-09-28T18:02:47;7.97;;;5.83;;
33993;SDS011;20673;48.980;8.138;2022-09-28T18:05:15;8.17;;;6.33;;
33993;SDS011;20673;48.980;8.138;2022-09-28T18:07:43;10.10;;;5.42;;
33993;SDS011;20673;48.980;8.138;2022-09-28T18:10:15;10.88;;;5.65;;
33993;SDS011;20673;48.980;8.138;2022-09-28T18:12:46;6.17;;;5.30;;
33993;SDS011;20673;48.980;8.138;2022-09-28T18:15:14;6.00;;;4.90;;
33993;SDS011;20673;48.980;8.138;2022-09-28T18:17:42;7.05;;;4.30;;
33993;SDS011;20673;48.980;8.138;2022-09-28T18:20:09;7.47;;;3.80;;
33993;SDS011;20673;48.980;8.138;2022-09-28T18:22:37;4.40;;;3.30;;
33993;SDS011;20673;48.980;8.138;2022-09-28T18:25:04;4.70;;;3.20;;
33993;SDS011;20673;48.980;8.138;2022-09-28T18:27:31;8.03;;;4.55;;
33993;SDS011;20673;48.980;8.138;2022-09-28T18:30:01;6.40;;;5.50;;
33993;SDS011;20673;48.980;8.138;2022-09-28T18:32:28;6.30;;;5.67;;
33993;SDS011;20673;48.980;8.138;2022-09-28T18:34:55;10.43;;;8.08;;
33993;SDS011;20673;48.980;8.138;2022-09-28T18:37:21;9.87;;;8.60;;
33993;SDS011;20673;48.980;8.138;2022-09-28T18:39:47;11.03;;;9.50;;
33993;SDS011;20673;48.980;8.138;2022-09-28T18:42:13;11.33;;;9.93;;
33993;SDS011;20673;48.980;8.138;2022-09-28T18:44:40;9.80;;;8.57;;
33993;SDS011;20673;48.980;8.138;2022-09-28T18:47:06;10.40;;;8.10;;
33993;SDS011;20673;48.980;8.138;2022-09-28T18:49:32;7.80;;;7.00;;
33993;SDS011;20673;48.980;8.138;2022-09-28T18:51:58;10.28;;;6.85;;
33993;SDS011;20673;48.980;8.138;2022-09-28T18:54:25;9.57;;;6.40;;